sensor_id;sensor_type;location;lat;lon;timestamp;pressure;altitude;pressure_sealevel;temperature;humidity
62697;BME280;48761;42.680;23.312;2023-07-31T00:01:17;94481.53;;;24.22;59.91
62697;BME280;48761;42.680;23.312;2023-07-31T00:03:43;94497.06;;;24.28;59.68
62697;BME280;48761;42.680;23.312;2023-07-31T00:06:09;94495.69;;;24.53;59.18
62697;BME280;48761;42.680;23.312;2023-07-31T00:08:35;94499.78;;;24.28;59.10
62697;BME280;48761;42.680;23.312;2023-07-31T00:11:01;94484.22;;;24.09;59.99
62697;BME280;48761;42.680;23.312;2023-07-31T00:13:27;94496.59;;;23.82;60.21
62697;BME280;48761;42.680;23.312;2023-07-31T00:15:53;94505.88;;;24.02;60.27
62697;BME280;48761;42.680;23.312;2023-07-31T00:18:19;94502.72;;;24.34;59.27
62697;BME280;48761;42.680;23.312;2023-07-31T00:20:45;94479.56;;;23.95;59.65
62697;BME280;48761;42.680;23.312;2023-07-31T00:23:11;94475.75;;;23.83;61.10
62697;BME280;48761;42.680;23.312;2023-07-31T00:25:36;94499.63;;;24.01;62.07
62697;BME280;48761;42.680;23.312;2023-07-31T00:28:02;94489.25;;;24.12;61.78
62697;BME280;48761;42.680;23.312;2023-07-31T00:30:28;94478.06;;;24.28;61.45
62697;BME280;48761;42.680;23.312;2023-07-31T00:32:54;94460.16;;;24.48;61.10
62697;BME280;48761;42.680;23.312;2023-07-31T00:35:20;94465.16;;;23.95;62.92
62697;BME280;48761;42.680;23.312;2023-07-31T00:37:46;94450.81;;;24.15;62.53
62697;BME280;48761;42.680;23.312;2023-07-31T00:40:12;94456.97;;;23.88;63.54
62697;BME280;48761;42.680;23.312;2023-07-31T00:42:38;94465.16;;;23.95;63.59
62697;BME280;48761;42.680;23.312;2023-07-31T00:45:04;94453.66;;;23.93;63.32
62697;BME280;48761;42.680;23.312;2023-07-31T00:47:30;94461.28;;;24.25;62.29
62697;BME280;48761;42.680;23.312;2023-07-31T00:49:56;94446.22;;;24.15;62.53
62697;BME280;48761;42.680;23.312;2023-07-31T00:52:22;94473.94;;;24.39;62.18
62697;BME280;48761;42.680;23.312;2023-07-31T00:54:49;94469.44;;;24.25;62.42
62697;BME280;48761;42.680;23.312;2023-07-31T00:57:16;94477.31;;;23.64;64.79
62697;BME280;48761;42.680;23.312;2023-07-31T00:59:42;94458.00;;;23.51;65.35
62697;BME280;48761;42.680;23.312;2023-07-31T01:02:08;94463.56;;;23.72;64.72
62697;BME280;48761;42.680;23.312;2023-07-31T01:04:34;94434.91;;;24.05;63.11
62697;BME280;48761;42.680;23.312;2023-07-31T01:09:43;94466.00;;;24.02;63.30
62697;BME280;48761;42.680;23.312;2023-07-31T01:12:14;94421.94;;;23.22;65.42
62697;BME280;48761;42.680;23.312;2023-07-31T01:14:40;94449.84;;;23.80;64.19
62697;BME280;48761;42.680;23.312;2023-07-31T01:17:06;94441.63;;;23.67;64.66
62697;BME280;48761;42.680;23.312;2023-07-31T01:19:32;94443.50;;;23.37;66.22
62697;BME280;48761;42.680;23.312;2023-07-31T01:27:10;94442.69;;;23.44;65.89
62697;BME280;48761;42.680;23.312;2023-07-31T01:32:28;94438.16;;;23.87;64.27
62697;BME280;48761;42.680;23.312;2023-07-31T01:34:55;94449.97;;;24.07;63.77
62697;BME280;48761;42.680;23.312;2023-07-31T01:37:28;94423.47;;;23.60;65.01
62697;BME280;48761;42.680;23.312;2023-07-31T01:39:55;94422.75;;;23.87;64.09
62697;BME280;48761;42.680;23.312;2023-07-31T01:42:20;94446.59;;;23.99;64.49
62697;BME280;48761;42.680;23.312;2023-07-31T01:44:46;94440.59;;;23.68;65.42
62697;BME280;48761;42.680;23.312;2023-07-31T01:47:12;94436.03;;;23.75;65.53
62697;BME280;48761;42.680;23.312;2023-07-31T01:49:38;94441.94;;;23.85;65.25
62697;BME280;48761;42.680;23.312;2023-07-31T01:52:04;94442.25;;;23.69;65.79
62697;BME280;48761;42.680;23.312;2023-07-31T01:54:31;94451.00;;;23.64;65.95
62697;BME280;48761;42.680;23.312;2023-07-31T01:56:57;94454.25;;;23.81;65.31
62697;BME280;48761;42.680;23.312;2023-07-31T01:59:23;94439.25;;;23.50;66.34
62697;BME280;48761;42.680;23.312;2023-07-31T02:01:49;94445.53;;;23.57;66.74
62697;BME280;48761;42.680;23.312;2023-07-31T02:04:15;94449.97;;;23.65;66.10
62697;BME280;48761;42.680;23.312;2023-07-31T02:06:41;94409.91;;;23.32;66.83
62697;BME280;48761;42.680;23.312;2023-07-31T02:09:07;94426.19;;;22.81;68.91
62697;BME280;48761;42.680;23.312;2023-07-31T02:11:33;94433.44;;;23.31;67.46
62697;BME280;48761;42.680;23.312;2023-07-31T02:13:59;94439.50;;;23.55;66.78
62697;BME280;48761;42.680;23.312;2023-07-31T02:16:25;94463.69;;;23.57;66.99
62697;BME280;48761;42.680;23.312;2023-07-31T02:18:51;94454.56;;;23.36;67.62
62697;BME280;48761;42.680;23.312;2023-07-31T02:21:18;94442.22;;;23.04;68.77
62697;BME280;48761;42.680;23.312;2023-07-31T02:23:44;94440.63;;;23.10;68.66
62697;BME280;48761;42.680;23.312;2023-07-31T02:26:10;94444.00;;;22.90;69.47
62697;BME280;48761;42.680;23.312;2023-07-31T02:28:36;94413.25;;;22.76;69.47
62697;BME280;48761;42.680;23.312;2023-07-31T02:31:03;94453.31;;;23.38;68.25
62697;BME280;48761;42.680;23.312;2023-07-31T02:33:29;94433.34;;;22.89;69.41
62697;BME280;48761;42.680;23.312;2023-07-31T02:35:55;94439.13;;;23.36;67.69
62697;BME280;48761;42.680;23.312;2023-07-31T02:38:21;94442.59;;;23.52;67.30
62697;BME280;48761;42.680;23.312;2023-07-31T02:40:47;94444.16;;;23.39;67.94
62697;BME280;48761;42.680;23.312;2023-07-31T02:43:14;94440.06;;;23.22;68.63
62697;BME280;48761;42.680;23.312;2023-07-31T02:45:39;94448.09;;;23.08;69.04
62697;BME280;48761;42.680;23.312;2023-07-31T02:48:05;94442.81;;;23.28;67.85
62697;BME280;48761;42.680;23.312;2023-07-31T02:50:32;94470.03;;;22.91;69.85
62697;BME280;48761;42.680;23.312;2023-07-31T02:52:58;94467.72;;;23.10;69.26
62697;BME280;48761;42.680;23.312;2023-07-31T02:55:24;94480.38;;;23.32;68.23
62697;BME280;48761;42.680;23.312;2023-07-31T02:57:50;94477.09;;;23.65;67.42
62697;BME280;48761;42.680;23.312;2023-07-31T03:00:16;94466.13;;;23.80;66.41
62697;BME280;48761;42.680;23.312;2023-07-31T03:02:42;94486.69;;;23.61;66.82
62697;BME280;48761;42.680;23.312;2023-07-31T03:05:08;94495.53;;;23.48;67.78
62697;BME280;48761;42.680;23.312;2023-07-31T03:07:34;94488.38;;;23.69;66.96
62697;BME280;48761;42.680;23.312;2023-07-31T03:10:00;94490.06;;;23.70;66.47
62697;BME280;48761;42.680;23.312;2023-07-31T03:12:26;94478.31;;;23.05;68.80
62697;BME280;48761;42.680;23.312;2023-07-31T03:14:52;94486.38;;;23.49;67.25
62697;BME280;48761;42.680;23.312;2023-07-31T03:17:18;94492.53;;;23.36;67.88
62697;BME280;48761;42.680;23.312;2023-07-31T03:19:44;94498.41;;;23.68;66.70
62697;BME280;48761;42.680;23.312;2023-07-31T03:22:10;94478.94;;;23.58;67.10
62697;BME280;48761;42.680;23.312;2023-07-31T03:24:35;94471.91;;;23.13;68.80
62697;BME280;48761;42.680;23.312;2023-07-31T03:27:01;94455.38;;;23.36;67.45
62697;BME280;48761;42.680;23.312;2023-07-31T03:29:27;94496.69;;;23.38;68.30
62697;BME280;48761;42.680;23.312;2023-07-31T03:31:53;94499.06;;;23.20;68.87
62697;BME280;48761;42.680;23.312;2023-07-31T03:34:19;94484.03;;;23.46;67.66
62697;BME280;48761;42.680;23.312;2023-07-31T03:36:45;94499.81;;;24.00;66.03
62697;BME280;48761;42.680;23.312;2023-07-31T03:39:11;94504.81;;;23.38;67.84
62697;BME280;48761;42.680;23.312;2023-07-31T03:41:37;94490.84;;;23.35;68.13
62697;BME280;48761;42.680;23.312;2023-07-31T03:44:03;94494.41;;;23.35;67.94
62697;BME280;48761;42.680;23.312;2023-07-31T03:46:29;94513.94;;;23.53;67.62
62697;BME280;48761;42.680;23.312;2023-07-31T03:48:55;94507.78;;;23.66;67.10
62697;BME280;48761;42.680;23.312;2023-07-31T03:51:21;94506.44;;;23.55;67.11
62697;BME280;48761;42.680;23.312;2023-07-31T03:53:47;94514.94;;;23.23;68.27
62697;BME280;48761;42.680;23.312;2023-07-31T03:56:13;94500.78;;;23.85;65.56
62697;BME280;48761;42.680;23.312;2023-07-31T03:58:39;94521.38;;;23.72;66.84
62697;BME280;48761;42.680;23.312;2023-07-31T04:01:05;94520.28;;;24.02;65.38
62697;BME280;48761;42.680;23.312;2023-07-31T04:03:31;94524.22;;;23.93;65.83
62697;BME280;48761;42.680;23.312;2023-07-31T04:05:57;94500.75;;;23.78;65.89
62697;BME280;48761;42.680;23.312;2023-07-31T04:08:23;94503.47;;;23.49;66.67
62697;BME280;48761;42.680;23.312;2023-07-31T04:10:52;94521.41;;;23.79;65.97
62697;BME280;48761;42.680;23.312;2023-07-31T04:13:18;94528.25;;;23.68;66.32
62697;BME280;48761;42.680;23.312;2023-07-31T04:15:48;94528.03;;;24.05;65.50
62697;BME280;48761;42.680;23.312;2023-07-31T04:18:14;94533.81;;;23.89;65.81
62697;BME280;48761;42.680;23.312;2023-07-31T04:20:40;94534.84;;;23.59;66.82
62697;BME280;48761;42.680;23.312;2023-07-31T04:23:06;94533.38;;;23.92;65.63
62697;BME280;48761;42.680;23.312;2023-07-31T04:25:32;94529.41;;;23.88;65.63
62697;BME280;48761;42.680;23.312;2023-07-31T04:27:58;94536.16;;;23.70;66.50
62697;BME280;48761;42.680;23.312;2023-07-31T04:30:24;94530.22;;;23.81;66.07
62697;BME280;48761;42.680;23.312;2023-07-31T04:32:50;94541.06;;;23.53;66.72
62697;BME280;48761;42.680;23.312;2023-07-31T04:35:16;94539.84;;;23.55;66.77
62697;BME280;48761;42.680;23.312;2023-07-31T04:37:41;94531.88;;;23.82;65.59
62697;BME280;48761;42.680;23.312;2023-07-31T04:40:08;94537.44;;;23.74;65.83
62697;BME280;48761;42.680;23.312;2023-07-31T04:42:34;94522.69;;;23.04;67.94
62697;BME280;48761;42.680;23.312;2023-07-31T04:45:00;94541.28;;;23.07;67.83
62697;BME280;48761;42.680;23.312;2023-07-31T04:47:25;94522.19;;;23.15;67.78
62697;BME280;48761;42.680;23.312;2023-07-31T04:49:51;94524.94;;;23.22;67.58
62697;BME280;48761;42.680;23.312;2023-07-31T04:52:17;94532.25;;;24.15;65.49
62697;BME280;48761;42.680;23.312;2023-07-31T04:54:43;94528.34;;;24.73;63.43
62697;BME280;48761;42.680;23.312;2023-07-31T04:57:09;94527.94;;;24.77;62.31
62697;BME280;48761;42.680;23.312;2023-07-31T04:59:35;94521.41;;;24.15;63.60
62697;BME280;48761;42.680;23.312;2023-07-31T05:02:01;94533.13;;;24.22;63.97
62697;BME280;48761;42.680;23.312;2023-07-31T05:04:27;94529.19;;;24.67;62.66
62697;BME280;48761;42.680;23.312;2023-07-31T05:06:53;94523.69;;;24.54;63.62
62697;BME280;48761;42.680;23.312;2023-07-31T05:09:19;94525.53;;;25.57;60.56
62697;BME280;48761;42.680;23.312;2023-07-31T05:11:44;94526.34;;;25.64;59.77
62697;BME280;48761;42.680;23.312;2023-07-31T05:14:10;94528.88;;;25.93;58.29
62697;BME280;48761;42.680;23.312;2023-07-31T05:16:36;94522.84;;;26.37;57.09
62697;BME280;48761;42.680;23.312;2023-07-31T05:19:02;94532.06;;;26.42;56.77
62697;BME280;48761;42.680;23.312;2023-07-31T05:21:28;94534.88;;;26.75;56.34
62697;BME280;48761;42.680;23.312;2023-07-31T05:23:54;94525.34;;;26.52;56.91
62697;BME280;48761;42.680;23.312;2023-07-31T05:26:20;94527.28;;;26.84;55.86
62697;BME280;48761;42.680;23.312;2023-07-31T05:28:46;94533.75;;;26.37;56.13
62697;BME280;48761;42.680;23.312;2023-07-31T05:31:11;94522.19;;;25.89;56.98
62697;BME280;48761;42.680;23.312;2023-07-31T05:33:37;94515.06;;;25.19;58.90
62697;BME280;48761;42.680;23.312;2023-07-31T05:36:03;94532.50;;;26.33;56.33
62697;BME280;48761;42.680;23.312;2023-07-31T05:38:29;94529.38;;;26.89;54.70
62697;BME280;48761;42.680;23.312;2023-07-31T05:40:55;94525.13;;;26.93;54.18
62697;BME280;48761;42.680;23.312;2023-07-31T05:43:21;94532.56;;;26.79;53.64
62697;BME280;48761;42.680;23.312;2023-07-31T05:45:47;94526.06;;;26.80;53.18
62697;BME280;48761;42.680;23.312;2023-07-31T05:48:13;94519.66;;;26.60;53.78
62697;BME280;48761;42.680;23.312;2023-07-31T05:50:39;94524.31;;;26.92;53.30
62697;BME280;48761;42.680;23.312;2023-07-31T05:53:05;94529.84;;;26.79;52.77
62697;BME280;48761;42.680;23.312;2023-07-31T05:55:31;94530.03;;;26.24;53.92
62697;BME280;48761;42.680;23.312;2023-07-31T05:57:57;94534.28;;;27.12;52.30
62697;BME280;48761;42.680;23.312;2023-07-31T06:00:23;94534.25;;;27.19;52.23
62697;BME280;48761;42.680;23.312;2023-07-31T06:02:48;94524.66;;;27.03;52.16
62697;BME280;48761;42.680;23.312;2023-07-31T06:05:14;94535.88;;;27.27;51.58
62697;BME280;48761;42.680;23.312;2023-07-31T06:07:40;94540.06;;;26.30;52.72
62697;BME280;48761;42.680;23.312;2023-07-31T06:10:07;94540.06;;;26.30;52.26
62697;BME280;48761;42.680;23.312;2023-07-31T06:12:33;94547.50;;;26.69;51.17
62697;BME280;48761;42.680;23.312;2023-07-31T06:14:59;94542.94;;;26.95;50.05
62697;BME280;48761;42.680;23.312;2023-07-31T06:17:25;94547.59;;;27.85;48.46
62697;BME280;48761;42.680;23.312;2023-07-31T06:19:51;94543.25;;;28.60;46.68
62697;BME280;48761;42.680;23.312;2023-07-31T06:22:17;94545.63;;;28.12;47.12
62697;BME280;48761;42.680;23.312;2023-07-31T06:24:44;94547.56;;;27.34;48.54
62697;BME280;48761;42.680;23.312;2023-07-31T06:27:09;94552.34;;;28.16;46.68
62697;BME280;48761;42.680;23.312;2023-07-31T06:29:35;94553.19;;;27.65;47.97
62697;BME280;48761;42.680;23.312;2023-07-31T06:32:01;94547.22;;;27.24;48.38
62697;BME280;48761;42.680;23.312;2023-07-31T06:34:27;94545.16;;;26.80;49.36
62697;BME280;48761;42.680;23.312;2023-07-31T06:36:53;94545.00;;;27.00;49.63
62697;BME280;48761;42.680;23.312;2023-07-31T06:39:19;94546.66;;;27.15;49.18
62697;BME280;48761;42.680;23.312;2023-07-31T06:41:45;94546.69;;;27.92;47.64
62697;BME280;48761;42.680;23.312;2023-07-31T06:44:11;94535.59;;;27.61;47.87
62697;BME280;48761;42.680;23.312;2023-07-31T06:46:37;94540.19;;;28.12;46.82
62697;BME280;48761;42.680;23.312;2023-07-31T06:49:03;94538.28;;;27.93;47.77
62697;BME280;48761;42.680;23.312;2023-07-31T06:51:29;94544.19;;;27.90;47.41
62697;BME280;48761;42.680;23.312;2023-07-31T06:53:55;94541.19;;;27.40;47.75
62697;BME280;48761;42.680;23.312;2023-07-31T06:56:21;94534.34;;;26.98;48.40
62697;BME280;48761;42.680;23.312;2023-07-31T06:58:47;94548.44;;;27.28;47.93
62697;BME280;48761;42.680;23.312;2023-07-31T07:01:12;94536.72;;;28.23;46.00
62697;BME280;48761;42.680;23.312;2023-07-31T07:03:39;94546.91;;;27.64;46.86
62697;BME280;48761;42.680;23.312;2023-07-31T07:06:04;94530.19;;;28.05;46.25
62697;BME280;48761;42.680;23.312;2023-07-31T07:08:31;94534.75;;;28.49;44.78
62697;BME280;48761;42.680;23.312;2023-07-31T07:10:57;94533.66;;;28.31;45.50
62697;BME280;48761;42.680;23.312;2023-07-31T07:13:23;94539.34;;;28.86;44.41
62697;BME280;48761;42.680;23.312;2023-07-31T07:15:49;94544.34;;;27.70;46.45
62697;BME280;48761;42.680;23.312;2023-07-31T07:18:15;94525.81;;;27.20;47.12
62697;BME280;48761;42.680;23.312;2023-07-31T07:20:49;94540.53;;;27.71;46.22
62697;BME280;48761;42.680;23.312;2023-07-31T07:23:15;94532.75;;;28.38;44.81
62697;BME280;48761;42.680;23.312;2023-07-31T07:25:42;94521.22;;;28.17;44.86
62697;BME280;48761;42.680;23.312;2023-07-31T07:28:09;94536.34;;;27.10;47.37
62697;BME280;48761;42.680;23.312;2023-07-31T07:30:34;94518.66;;;27.52;46.34
62697;BME280;48761;42.680;23.312;2023-07-31T07:33:00;94522.00;;;27.28;47.11
62697;BME280;48761;42.680;23.312;2023-07-31T07:35:26;94541.09;;;28.24;45.57
62697;BME280;48761;42.680;23.312;2023-07-31T07:37:52;94546.47;;;27.93;45.55
62697;BME280;48761;42.680;23.312;2023-07-31T07:40:18;94535.34;;;28.33;45.22
62697;BME280;48761;42.680;23.312;2023-07-31T07:42:44;94535.34;;;29.32;43.72
62697;BME280;48761;42.680;23.312;2023-07-31T07:45:10;94547.41;;;29.55;42.45
62697;BME280;48761;42.680;23.312;2023-07-31T07:47:38;94542.28;;;29.47;42.62
62697;BME280;48761;42.680;23.312;2023-07-31T07:50:04;94529.13;;;28.63;43.87
62697;BME280;48761;42.680;23.312;2023-07-31T07:52:30;94523.28;;;29.76;41.72
62697;BME280;48761;42.680;23.312;2023-07-31T07:54:56;94544.16;;;29.03;41.73
62697;BME280;48761;42.680;23.312;2023-07-31T07:57:22;94551.94;;;28.12;43.00
62697;BME280;48761;42.680;23.312;2023-07-31T07:59:48;94545.31;;;28.01;42.92
62697;BME280;48761;42.680;23.312;2023-07-31T08:02:14;94535.47;;;28.19;43.23
62697;BME280;48761;42.680;23.312;2023-07-31T08:04:40;94543.81;;;29.42;41.53
62697;BME280;48761;42.680;23.312;2023-07-31T08:07:06;94545.69;;;29.97;41.00
62697;BME280;48761;42.680;23.312;2023-07-31T08:09:32;94548.53;;;30.92;39.72
62697;BME280;48761;42.680;23.312;2023-07-31T08:11:57;94545.34;;;30.05;40.01
62697;BME280;48761;42.680;23.312;2023-07-31T08:14:23;94537.31;;;29.13;41.56
62697;BME280;48761;42.680;23.312;2023-07-31T08:16:49;94561.16;;;28.56;43.07
62697;BME280;48761;42.680;23.312;2023-07-31T08:19:15;94557.28;;;28.63;42.31
62697;BME280;48761;42.680;23.312;2023-07-31T08:21:41;94556.69;;;29.11;41.97
62697;BME280;48761;42.680;23.312;2023-07-31T08:24:07;94556.38;;;29.01;41.63
62697;BME280;48761;42.680;23.312;2023-07-31T08:26:33;94556.06;;;28.40;42.93
62697;BME280;48761;42.680;23.312;2023-07-31T08:28:59;94555.06;;;28.35;43.77
62697;BME280;48761;42.680;23.312;2023-07-31T08:31:24;94555.47;;;27.94;44.62
62697;BME280;48761;42.680;23.312;2023-07-31T08:33:50;94562.09;;;27.53;44.89
62697;BME280;48761;42.680;23.312;2023-07-31T08:36:16;94548.59;;;28.10;43.27
62697;BME280;48761;42.680;23.312;2023-07-31T08:38:42;94530.00;;;28.19;43.71
62697;BME280;48761;42.680;23.312;2023-07-31T08:41:08;94546.91;;;28.53;43.14
62697;BME280;48761;42.680;23.312;2023-07-31T08:43:36;94548.59;;;29.47;40.09
62697;BME280;48761;42.680;23.312;2023-07-31T08:46:03;94541.16;;;29.05;41.45
62697;BME280;48761;42.680;23.312;2023-07-31T08:48:29;94536.53;;;28.74;42.58
62697;BME280;48761;42.680;23.312;2023-07-31T08:50:56;94543.97;;;28.86;42.25
62697;BME280;48761;42.680;23.312;2023-07-31T08:53:22;94548.00;;;28.64;42.20
62697;BME280;48761;42.680;23.312;2023-07-31T08:55:49;94541.41;;;28.16;42.85
62697;BME280;48761;42.680;23.312;2023-07-31T08:58:15;94541.84;;;28.13;42.44
62697;BME280;48761;42.680;23.312;2023-07-31T09:00:43;94528.13;;;28.76;41.42
62697;BME280;48761;42.680;23.312;2023-07-31T09:03:14;94554.16;;;28.79;41.37
62697;BME280;48761;42.680;23.312;2023-07-31T09:05:45;94548.03;;;28.95;41.18
62697;BME280;48761;42.680;23.312;2023-07-31T09:08:13;94539.94;;;28.89;41.13
62697;BME280;48761;42.680;23.312;2023-07-31T09:10:42;94545.66;;;28.49;42.13
62697;BME280;48761;42.680;23.312;2023-07-31T09:13:09;94541.69;;;28.07;42.40
62697;BME280;48761;42.680;23.312;2023-07-31T09:15:35;94523.47;;;29.07;40.32
62697;BME280;48761;42.680;23.312;2023-07-31T09:18:02;94534.88;;;29.04;40.68
62697;BME280;48761;42.680;23.312;2023-07-31T09:20:28;94529.94;;;29.13;39.79
62697;BME280;48761;42.680;23.312;2023-07-31T09:22:55;94521.34;;;29.52;39.84
62697;BME280;48761;42.680;23.312;2023-07-31T09:25:26;94523.06;;;29.78;39.98
62697;BME280;48761;42.680;23.312;2023-07-31T09:27:58;94530.22;;;30.03;39.30
62697;BME280;48761;42.680;23.312;2023-07-31T09:30:24;94525.94;;;29.28;40.50
62697;BME280;48761;42.680;23.312;2023-07-31T09:32:59;94506.97;;;29.69;39.79
62697;BME280;48761;42.680;23.312;2023-07-31T09:35:29;94521.38;;;30.37;38.06
62697;BME280;48761;42.680;23.312;2023-07-31T09:37:58;94512.81;;;29.97;38.68
62697;BME280;48761;42.680;23.312;2023-07-31T09:40:29;94525.72;;;30.62;37.94
62697;BME280;48761;42.680;23.312;2023-07-31T09:42:59;94513.56;;;30.87;37.30
62697;BME280;48761;42.680;23.312;2023-07-31T09:45:26;94511.38;;;30.06;38.56
62697;BME280;48761;42.680;23.312;2023-07-31T09:47:52;94510.44;;;30.13;38.51
62697;BME280;48761;42.680;23.312;2023-07-31T09:50:19;94496.41;;;29.73;39.14
62697;BME280;48761;42.680;23.312;2023-07-31T09:52:46;94493.47;;;30.40;38.20
62697;BME280;48761;42.680;23.312;2023-07-31T09:55:12;94488.88;;;29.92;38.41
62697;BME280;48761;42.680;23.312;2023-07-31T09:57:42;94505.47;;;29.18;39.43
62697;BME280;48761;42.680;23.312;2023-07-31T10:00:09;94504.00;;;29.95;38.47
62697;BME280;48761;42.680;23.312;2023-07-31T10:02:36;94484.19;;;30.41;37.29
62697;BME280;48761;42.680;23.312;2023-07-31T10:05:03;94505.19;;;30.64;37.10
62697;BME280;48761;42.680;23.312;2023-07-31T10:07:30;94505.38;;;30.46;37.26
62697;BME280;48761;42.680;23.312;2023-07-31T10:09:59;94503.38;;;30.41;37.19
62697;BME280;48761;42.680;23.312;2023-07-31T10:12:29;94503.75;;;30.74;36.75
62697;BME280;48761;42.680;23.312;2023-07-31T10:14:55;94502.50;;;30.94;36.41
62697;BME280;48761;42.680;23.312;2023-07-31T10:17:22;94500.94;;;28.93;39.13
62697;BME280;48761;42.680;23.312;2023-07-31T10:19:49;94484.03;;;29.15;39.04
62697;BME280;48761;42.680;23.312;2023-07-31T10:22:15;94498.97;;;30.28;37.13
62697;BME280;48761;42.680;23.312;2023-07-31T10:24:43;94484.25;;;30.58;36.39
62697;BME280;48761;42.680;23.312;2023-07-31T10:27:10;94491.47;;;30.76;36.00
62697;BME280;48761;42.680;23.312;2023-07-31T10:29:38;94491.00;;;30.14;36.88
62697;BME280;48761;42.680;23.312;2023-07-31T10:32:05;94494.16;;;30.47;36.86
62697;BME280;48761;42.680;23.312;2023-07-31T10:34:34;94483.00;;;30.37;37.09
62697;BME280;48761;42.680;23.312;2023-07-31T10:37:23;94484.41;;;30.51;36.13
62697;BME280;48761;42.680;23.312;2023-07-31T10:40:05;94483.09;;;30.42;35.72
62697;BME280;48761;42.680;23.312;2023-07-31T10:42:36;94487.56;;;30.90;35.85
62697;BME280;48761;42.680;23.312;2023-07-31T10:45:07;94470.97;;;30.67;35.88
62697;BME280;48761;42.680;23.312;2023-07-31T10:47:38;94472.19;;;30.71;36.05
62697;BME280;48761;42.680;23.312;2023-07-31T10:50:17;94485.03;;;30.17;36.94
62697;BME280;48761;42.680;23.312;2023-07-31T10:52:54;94452.75;;;29.23;37.65
62697;BME280;48761;42.680;23.312;2023-07-31T10:55:41;94481.41;;;29.87;36.98
62697;BME280;48761;42.680;23.312;2023-07-31T10:58:09;94468.75;;;30.64;35.57
62697;BME280;48761;42.680;23.312;2023-07-31T11:00:40;94468.84;;;30.98;35.33
62697;BME280;48761;42.680;23.312;2023-07-31T11:03:17;94462.06;;;30.89;34.37
62697;BME280;48761;42.680;23.312;2023-07-31T11:10:50;94450.91;;;31.25;33.29
62697;BME280;48761;42.680;23.312;2023-07-31T11:13:17;94454.50;;;31.60;33.22
62697;BME280;48761;42.680;23.312;2023-07-31T11:15:43;94457.81;;;31.28;33.24
62697;BME280;48761;42.680;23.312;2023-07-31T11:18:09;94454.41;;;31.20;33.95
62697;BME280;48761;42.680;23.312;2023-07-31T11:20:36;94465.47;;;31.26;33.81
62697;BME280;48761;42.680;23.312;2023-07-31T11:23:05;94463.47;;;31.38;33.18
62697;BME280;48761;42.680;23.312;2023-07-31T11:25:32;94456.88;;;31.05;33.81
62697;BME280;48761;42.680;23.312;2023-07-31T11:28:10;94457.81;;;30.81;33.74
62697;BME280;48761;42.680;23.312;2023-07-31T11:30:36;94460.47;;;31.23;33.58
62697;BME280;48761;42.680;23.312;2023-07-31T11:33:03;94448.34;;;31.53;32.82
62697;BME280;48761;42.680;23.312;2023-07-31T11:35:32;94437.09;;;30.73;33.36
62697;BME280;48761;42.680;23.312;2023-07-31T11:37:59;94452.72;;;30.31;34.49
62697;BME280;48761;42.680;23.312;2023-07-31T11:40:25;94462.28;;;30.17;34.72
62697;BME280;48761;42.680;23.312;2023-07-31T11:42:51;94456.81;;;30.17;35.77
62697;BME280;48761;42.680;23.312;2023-07-31T11:45:17;94455.00;;;30.23;35.78
62697;BME280;48761;42.680;23.312;2023-07-31T11:47:43;94449.88;;;30.38;35.67
62697;BME280;48761;42.680;23.312;2023-07-31T11:50:10;94455.28;;;30.92;34.48
62697;BME280;48761;42.680;23.312;2023-07-31T11:52:40;94444.66;;;30.25;35.25
62697;BME280;48761;42.680;23.312;2023-07-31T11:55:08;94446.31;;;30.14;35.09
62697;BME280;48761;42.680;23.312;2023-07-31T11:57:35;94440.91;;;29.90;36.54
62697;BME280;48761;42.680;23.312;2023-07-31T12:00:02;94448.69;;;30.34;35.27
62697;BME280;48761;42.680;23.312;2023-07-31T12:02:29;94432.63;;;30.84;34.21
62697;BME280;48761;42.680;23.312;2023-07-31T12:04:55;94447.00;;;30.45;35.34
62697;BME280;48761;42.680;23.312;2023-07-31T12:07:21;94433.75;;;29.88;36.68
62697;BME280;48761;42.680;23.312;2023-07-31T12:09:54;94447.97;;;30.27;36.13
62697;BME280;48761;42.680;23.312;2023-07-31T12:12:21;94438.88;;;30.50;35.75
62697;BME280;48761;42.680;23.312;2023-07-31T12:14:47;94424.28;;;30.62;35.35
62697;BME280;48761;42.680;23.312;2023-07-31T12:17:14;94402.25;;;31.20;34.21
62697;BME280;48761;42.680;23.312;2023-07-31T12:19:40;94414.94;;;30.46;35.14
62697;BME280;48761;42.680;23.312;2023-07-31T12:22:15;94413.50;;;31.02;34.91
62697;BME280;48761;42.680;23.312;2023-07-31T12:24:43;94409.91;;;31.01;35.56
62697;BME280;48761;42.680;23.312;2023-07-31T12:27:14;94420.63;;;31.03;34.58
62697;BME280;48761;42.680;23.312;2023-07-31T12:29:42;94427.72;;;30.40;35.03
62697;BME280;48761;42.680;23.312;2023-07-31T12:32:30;94415.06;;;30.39;35.54
62697;BME280;48761;42.680;23.312;2023-07-31T12:34:59;94424.59;;;30.48;34.71
62697;BME280;48761;42.680;23.312;2023-07-31T12:37:26;94424.38;;;30.67;33.95
62697;BME280;48761;42.680;23.312;2023-07-31T12:39:52;94424.25;;;29.79;35.13
62697;BME280;48761;42.680;23.312;2023-07-31T12:42:18;94421.16;;;29.87;35.10
62697;BME280;48761;42.680;23.312;2023-07-31T12:44:43;94399.72;;;29.60;35.54
62697;BME280;48761;42.680;23.312;2023-07-31T12:47:09;94413.72;;;30.12;34.83
62697;BME280;48761;42.680;23.312;2023-07-31T12:49:35;94414.84;;;30.28;34.77
62697;BME280;48761;42.680;23.312;2023-07-31T12:52:01;94408.00;;;30.02;35.34
62697;BME280;48761;42.680;23.312;2023-07-31T12:54:27;94378.22;;;29.40;36.08
62697;BME280;48761;42.680;23.312;2023-07-31T12:56:53;94404.38;;;29.72;35.90
62697;BME280;48761;42.680;23.312;2023-07-31T12:59:19;94392.00;;;29.57;36.21
62697;BME280;48761;42.680;23.312;2023-07-31T13:01:44;94391.13;;;29.69;36.06
62697;BME280;48761;42.680;23.312;2023-07-31T13:04:11;94399.00;;;30.30;35.32